createdAt,value
2023-04-18T00:01:53.898Z,97001.88
2023-04-18T00:04:20.963Z,96998.16
2023-04-18T00:06:48.218Z,96995.78
2023-04-18T00:09:15.346Z,96994.00
2023-04-18T00:11:42.222Z,96991.28
2023-04-18T00:14:09.074Z,96989.72
2023-04-18T00:16:36.007Z,97000.75
2023-04-18T00:19:02.830Z,96992.47
2023-04-18T00:21:32.432Z,96983.84
2023-04-18T00:23:59.236Z,96993.31
2023-04-18T00:26:26.644Z,96982.78
2023-04-18T00:28:53.417Z,96979.94
2023-04-18T00:31:20.226Z,96972.03
2023-04-18T00:33:46.911Z,96978.41
2023-04-18T00:36:13.630Z,96975.47
2023-04-18T00:38:40.566Z,96975.22
2023-04-18T00:41:07.276Z,96968.44
2023-04-18T00:43:34.096Z,96964.66
2023-04-18T00:46:01.279Z,96966.69
2023-04-18T00:48:28.134Z,96970.69
2023-04-18T00:50:57.863Z,96973.28
2023-04-18T00:53:24.748Z,96965.50
2023-04-18T00:55:51.514Z,96973.19
2023-04-18T00:58:18.302Z,96973.66
2023-04-18T01:00:45.070Z,96968.56
2023-04-18T01:03:11.927Z,96973.53
2023-04-18T01:05:38.884Z,96971.28
2023-04-18T01:08:05.639Z,96967.63
2023-04-18T01:10:32.494Z,96972.38
2023-04-18T01:13:18.386Z,96973.53
2023-04-18T01:15:46.675Z,96968.78
2023-04-18T01:18:13.860Z,96962.53
2023-04-18T01:20:42.164Z,96964.09
2023-04-18T01:23:08.938Z,96964.78
2023-04-18T01:25:35.817Z,96979.22
2023-04-18T01:28:02.624Z,96977.06
2023-04-18T01:30:29.423Z,96969.41
2023-04-18T01:32:56.202Z,96971.88
2023-04-18T01:35:23.124Z,96974.97
2023-04-18T01:37:49.885Z,96972.81
2023-04-18T01:40:16.817Z,96967.63
2023-04-18T01:42:43.547Z,96964.56
2023-04-18T01:45:11.539Z,96963.00
2023-04-18T01:47:38.472Z,96965.50
2023-04-18T01:50:06.072Z,96962.06
2023-04-18T01:52:32.861Z,96960.03
2023-04-18T01:54:59.580Z,96960.63
2023-04-18T01:57:26.441Z,96957.44
2023-04-18T01:59:53.176Z,96954.38
2023-04-18T02:02:20.218Z,96958.03
2023-04-18T02:04:47.091Z,96962.06
2023-04-18T02:07:13.819Z,96967.75
2023-04-18T02:09:45.915Z,96973.41
2023-04-18T02:12:12.672Z,96969.16
2023-04-18T02:14:39.414Z,96974.72
2023-04-18T02:17:06.459Z,96982.41
2023-04-18T02:19:33.266Z,96977.94
2023-04-18T02:22:00.188Z,96981.22
2023-04-18T02:24:27.043Z,96983.94
2023-04-18T02:26:56.587Z,96981.81
2023-04-18T02:29:26.162Z,96984.44
2023-04-18T02:31:52.998Z,96990.47
2023-04-18T02:34:19.769Z,96989.38
2023-04-18T02:36:46.792Z,96986.66
2023-04-18T02:39:13.640Z,96990.22
2023-04-18T02:41:40.496Z,96983.63
2023-04-18T02:44:08.370Z,96979.00
2023-04-18T02:46:35.186Z,96978.75
2023-04-18T02:49:01.943Z,96990.69
2023-04-18T02:51:32.175Z,96983.13
2023-04-18T02:53:58.977Z,96980.91
2023-04-18T02:56:25.748Z,96986.91
2023-04-18T02:58:52.499Z,96986.44
2023-04-18T03:01:19.301Z,96992.09
2023-04-18T03:03:46.109Z,96982.06
2023-04-18T03:06:12.826Z,96989.50
2023-04-18T03:08:41.409Z,96989.97
2023-04-18T03:11:08.133Z,96978.25
2023-04-18T03:13:35.078Z,96979.81
2023-04-18T03:16:01.982Z,96988.31
2023-04-18T03:18:28.903Z,96980.97
2023-04-18T03:20:55.657Z,96982.38
2023-04-18T03:23:25.510Z,96980.16
2023-04-18T03:25:54.748Z,96985.13
2023-04-18T03:28:21.609Z,96984.53
2023-04-18T03:30:48.532Z,96985.34
2023-04-18T03:33:15.230Z,96979.91
2023-04-18T03:35:42.019Z,96982.63
2023-04-18T03:38:08.767Z,96984.28
2023-04-18T03:40:35.598Z,96987.00
2023-04-18T03:43:02.335Z,96985.34
2023-04-18T03:45:29.128Z,96985.13
2023-04-18T03:47:55.921Z,96980.16
2023-04-18T03:50:22.638Z,96984.28
2023-04-18T03:52:49.452Z,96981.56
2023-04-18T03:55:16.232Z,96981.56
2023-04-18T03:57:42.951Z,96977.44
2023-04-18T04:00:10.291Z,96985.34
2023-04-18T04:02:39.475Z,96982.88
2023-04-18T04:05:06.712Z,96981.22
2023-04-18T04:07:33.734Z,96983.38
2023-04-18T04:10:00.601Z,96984.69
2023-04-18T04:12:28.852Z,96976.66
2023-04-18T04:14:55.755Z,96981.34
2023-04-18T04:17:22.583Z,96985.88
2023-04-18T04:19:49.605Z,96985.13
2023-04-18T04:22:16.348Z,96984.06
2023-04-18T04:24:43.586Z,96987.16
2023-04-18T04:27:10.507Z,96993.06
2023-04-18T04:29:37.388Z,96990.13
2023-04-18T04:32:04.341Z,96997.47
2023-04-18T04:34:31.162Z,96990.69
2023-04-18T04:36:57.988Z,96996.16
2023-04-18T04:39:27.228Z,97003.22
2023-04-18T04:41:54.037Z,96998.38
2023-04-18T04:44:20.894Z,96990.69
2023-04-18T04:46:47.805Z,96994.84
2023-04-18T04:49:14.640Z,96999.44
2023-04-18T04:51:41.435Z,97001.00
2023-04-18T04:54:08.230Z,97006.44
2023-04-18T04:56:35.011Z,97011.63
2023-04-18T04:59:01.729Z,97003.94
2023-04-18T05:01:28.575Z,97002.66
2023-04-18T05:03:55.529Z,97011.63
2023-04-18T05:06:22.308Z,97009.75
2023-04-18T05:08:49.377Z,97005.00
2023-04-18T05:11:16.516Z,97008.34
2023-04-18T05:13:43.476Z,97005.84
2023-04-18T05:16:10.355Z,97007.28
2023-04-18T05:18:37.140Z,97008.09
2023-04-18T05:21:04.031Z,96995.91
2023-04-18T05:23:30.704Z,97005.97
2023-04-18T05:25:57.477Z,96995.06
2023-04-18T05:28:25.697Z,97003.47
2023-04-18T05:30:52.474Z,97007.28
2023-04-18T05:33:19.327Z,97011.63
2023-04-18T05:35:46.044Z,97012.94
2023-04-18T05:38:12.794Z,97017.41
2023-04-18T05:40:39.637Z,97013.16
2023-04-18T05:43:06.412Z,97012.09
2023-04-18T05:45:33.154Z,97020.03
2023-04-18T05:48:00.026Z,97023.91
2023-04-18T05:50:26.881Z,97016.22
2023-04-18T05:52:53.698Z,97013.03
2023-04-18T05:55:20.547Z,97021.75
2023-04-18T05:57:47.244Z,97024.03
2023-04-18T06:00:14.624Z,97024.94
2023-04-18T06:02:41.574Z,97027.91
2023-04-18T06:05:09.293Z,97020.06
2023-04-18T06:07:36.109Z,97030.13
2023-04-18T06:10:02.978Z,97030.25
2023-04-18T06:12:29.698Z,97038.75
2023-04-18T06:14:56.478Z,97036.84
2023-04-18T06:17:25.942Z,97036.97
2023-04-18T06:19:52.741Z,97040.41
2023-04-18T06:22:19.510Z,97046.22
2023-04-18T06:24:46.451Z,97039.69
2023-04-18T06:27:27.984Z,97045.72
2023-04-18T06:29:58.160Z,97043.00
2023-04-18T06:32:24.934Z,97046.66
2023-04-18T06:34:54.169Z,97046.31
2023-04-18T06:37:22.103Z,97051.03
2023-04-18T06:39:48.850Z,97043.91
2023-04-18T06:42:15.725Z,97044.97
2023-04-18T06:44:42.510Z,97051.25
2023-04-18T06:47:09.643Z,97047.38
2023-04-18T06:49:36.478Z,97048.69
2023-04-18T06:52:03.372Z,97048.53
2023-04-18T06:54:30.116Z,97049.59
2023-04-18T06:56:56.863Z,97050.91
2023-04-18T06:59:23.622Z,97056.59
2023-04-18T07:01:51.000Z,97044.06
2023-04-18T07:04:18.146Z,97040.66
2023-04-18T07:06:45.496Z,97043.03
2023-04-18T07:09:12.196Z,97045.63
2023-04-18T07:11:38.899Z,97045.38
2023-04-18T07:14:05.625Z,97045.63
2023-04-18T07:16:32.381Z,97043.78
2023-04-18T07:19:02.269Z,97048.34
2023-04-18T07:21:28.976Z,97043.84
2023-04-18T07:26:22.263Z,97040.16
2023-04-18T07:28:49.140Z,97044.66
2023-04-18T07:31:15.938Z,97043.81
2023-04-18T07:33:42.706Z,97036.25
2023-04-18T07:36:09.474Z,97031.53
2023-04-18T07:38:36.320Z,97032.94
2023-04-18T07:41:03.087Z,97024.78
2023-04-18T07:43:33.903Z,97027.50
2023-04-18T07:46:00.721Z,97027.97
2023-04-18T07:48:27.531Z,97037.56
2023-04-18T07:50:54.244Z,97032.13
2023-04-18T07:53:20.980Z,97030.78
2023-04-18T07:55:47.718Z,97030.31
2023-04-18T07:58:14.435Z,97032.31
2023-04-18T08:00:42.324Z,97033.97
2023-04-18T08:03:09.735Z,97028.75
2023-04-18T08:05:36.913Z,97023.31
2023-04-18T08:08:03.953Z,97026.13
2023-04-18T08:10:30.768Z,97022.59
2023-04-18T08:12:58.813Z,97022.00
2023-04-18T08:15:25.769Z,97017.50
2023-04-18T08:17:52.615Z,97021.41
2023-04-18T08:20:21.230Z,97020.91
2023-04-18T08:23:05.233Z,97019.84
2023-04-18T08:25:34.571Z,97014.56
2023-04-18T08:28:01.338Z,97010.75
2023-04-18T08:30:28.291Z,97010.50
2023-04-18T08:32:55.089Z,97014.38
2023-04-18T08:35:21.916Z,97017.47
2023-04-18T08:37:48.754Z,97017.22
2023-04-18T08:40:15.618Z,97018.63
2023-04-18T08:42:43.019Z,97024.19
2023-04-18T08:45:10.163Z,97020.97
2023-04-18T08:47:37.127Z,97022.50
2023-04-18T08:50:04.705Z,97025.84
2023-04-18T08:52:31.621Z,97014.13
2023-04-18T08:54:58.379Z,97024.19
2023-04-18T08:57:25.108Z,97018.72
2023-04-18T08:59:51.848Z,97019.06
2023-04-18T09:02:18.651Z,97019.38
2023-04-18T09:04:46.444Z,97022.03
2023-04-18T09:07:14.553Z,97014.44
2023-04-18T09:09:44.975Z,97014.94
2023-04-18T09:12:12.306Z,97016.84
2023-04-18T09:14:39.085Z,97007.34
2023-04-18T09:17:05.816Z,97004.63
2023-04-18T09:19:32.606Z,97013.03
2023-04-18T09:22:00.334Z,97010.22
2023-04-18T09:24:27.265Z,97012.78
2023-04-18T09:26:54.543Z,97010.38
2023-04-18T09:29:21.933Z,97013.38
2023-04-18T09:32:01.175Z,97013.13
2023-04-18T09:34:28.787Z,97016.09
2023-04-18T09:37:12.284Z,97016.66
2023-04-18T09:39:40.131Z,97006.84
2023-04-18T09:42:06.944Z,97006.84
2023-04-18T09:44:33.746Z,97011.84
2023-04-18T09:47:01.095Z,97017.31
2023-04-18T09:49:28.180Z,97018.63
2023-04-18T09:51:55.496Z,97024.41
2023-04-18T09:54:25.411Z,97021.34
2023-04-18T09:56:52.547Z,97029.75
2023-04-18T09:59:33.214Z,97018.63
2023-04-18T10:02:01.950Z,97015.31
2023-04-18T10:04:28.849Z,97010.59
2023-04-18T10:06:55.731Z,97010.03
2023-04-18T10:09:22.544Z,97013.00
2023-04-18T10:11:49.365Z,97010.84
2023-04-18T10:14:16.525Z,97008.94
2023-04-18T10:16:43.771Z,97014.88
2023-04-18T10:19:26.786Z,97008.72
2023-04-18T10:21:58.058Z,97002.91
2023-04-18T10:24:46.357Z,96999.94
2023-04-18T10:27:13.205Z,97004.31
2023-04-18T10:29:50.042Z,97003.75
2023-04-18T10:32:18.165Z,97008.13
2023-04-18T10:34:46.605Z,97002.66
2023-04-18T10:37:13.478Z,96999.13
2023-04-18T10:40:07.113Z,96992.28
2023-04-18T10:42:45.675Z,96989.31
2023-04-18T10:45:25.015Z,96989.31
2023-04-18T10:47:54.206Z,96987.97
2023-04-18T10:50:20.998Z,96981.25
2023-04-18T10:52:47.840Z,96984.28
2023-04-18T10:55:18.984Z,96978.59
2023-04-18T10:57:47.733Z,96983.72
2023-04-18T11:00:16.731Z,96973.41
2023-04-18T11:02:51.461Z,96978.03
2023-04-18T11:05:28.439Z,96978.34
2023-04-18T11:07:55.452Z,96968.53
2023-04-18T11:10:23.568Z,96971.00
2023-04-18T11:12:50.974Z,96962.59
2023-04-18T11:15:24.258Z,96961.44
2023-04-18T11:17:58.871Z,96955.41
2023-04-18T11:20:25.834Z,96950.03
2023-04-18T11:22:57.733Z,96949.22
2023-04-18T11:25:29.173Z,96944.59
2023-04-18T11:28:00.738Z,96949.81
2023-04-18T11:30:28.019Z,96951.69
2023-04-18T11:32:54.812Z,96939.16
2023-04-18T11:35:21.625Z,96951.22
2023-04-18T11:37:48.418Z,96947.16
2023-04-18T11:40:15.237Z,96955.34
2023-04-18T11:42:42.121Z,96940.06
2023-04-18T11:45:12.822Z,96937.66
2023-04-18T11:47:40.006Z,96936.84
2023-04-18T11:50:07.793Z,96937.94
2023-04-18T11:52:35.116Z,96936.84
2023-04-18T11:55:15.526Z,96932.72
2023-04-18T11:57:42.539Z,96932.97
2023-04-18T12:00:10.058Z,96930.75
2023-04-18T12:02:46.537Z,96929.69
2023-04-18T12:05:24.437Z,96938.06
2023-04-18T12:07:51.301Z,96943.06
2023-04-18T12:10:20.964Z,96938.06
2023-04-18T12:12:48.547Z,96942.28
2023-04-18T12:15:15.959Z,96945.13
2023-04-18T12:17:46.598Z,96930.06
2023-04-18T12:20:13.845Z,96934.22
2023-04-18T12:22:45.147Z,96929.03
2023-04-18T12:25:26.947Z,96925.69
2023-04-18T12:28:15.472Z,96928.53
2023-04-18T12:30:42.541Z,96926.06
2023-04-18T12:33:09.289Z,96928.28
2023-04-18T12:35:36.092Z,96935.31
2023-04-18T12:38:03.074Z,96936.44
2023-04-18T12:40:30.103Z,96923.06
2023-04-18T12:42:56.812Z,96925.53
2023-04-18T12:45:23.835Z,96931.56
2023-04-18T12:47:51.300Z,96922.16
2023-04-18T12:50:22.548Z,96921.41
2023-04-18T12:52:50.588Z,96921.75
2023-04-18T12:55:17.468Z,96927.84
2023-04-18T12:57:44.209Z,96924.13
2023-04-18T13:00:11.513Z,96923.47
2023-04-18T13:02:40.044Z,96918.34
2023-04-18T13:05:08.096Z,96919.50
2023-04-18T13:07:35.051Z,96915.97
2023-04-18T13:10:01.827Z,96915.38
2023-04-18T13:12:28.532Z,96923.97
2023-04-18T13:14:55.352Z,96923.56
2023-04-18T13:17:22.236Z,96920.47
2023-04-18T13:19:49.182Z,96914.63
2023-04-18T13:22:16.978Z,96910.69
2023-04-18T13:24:43.707Z,96915.19
2023-04-18T13:27:10.439Z,96921.47
2023-04-18T13:29:38.542Z,96917.88
2023-04-18T13:32:05.965Z,96913.97
2023-04-18T13:34:38.615Z,96911.06
2023-04-18T13:37:05.948Z,96911.97
2023-04-18T13:39:32.980Z,96905.69
2023-04-18T13:41:59.839Z,96916.69
2023-04-18T13:44:26.718Z,96908.19
2023-04-18T13:46:53.563Z,96898.94
2023-04-18T13:49:20.387Z,96896.63
2023-04-18T13:51:47.228Z,96894.09
2023-04-18T13:54:15.149Z,96895.16
2023-04-18T13:56:42.296Z,96902.41
2023-04-18T13:59:08.997Z,96894.91
2023-04-18T14:01:38.637Z,96893.09
2023-04-18T14:04:05.734Z,96891.75
2023-04-18T14:06:32.599Z,96889.22
2023-04-18T14:08:59.397Z,96900.13
2023-04-18T14:11:26.200Z,96890.28
2023-04-18T14:13:53.001Z,96894.81
2023-04-18T14:16:19.815Z,96889.47
2023-04-18T14:18:46.662Z,96888.97
2023-04-18T14:21:13.465Z,96891.44
2023-04-18T14:23:40.323Z,96890.41
2023-04-18T14:26:07.354Z,96890.69
2023-04-18T14:28:34.082Z,96888.00
2023-04-18T14:31:00.927Z,96884.66
2023-04-18T14:33:27.796Z,96888.69
2023-04-18T14:35:54.875Z,96890.75
2023-04-18T14:38:21.608Z,96894.03
2023-04-18T14:40:48.342Z,96891.41
2023-04-18T14:43:15.122Z,96887.03
2023-04-18T14:45:41.839Z,96889.03
2023-04-18T14:48:10.184Z,96890.63
2023-04-18T14:50:37.294Z,96890.63
2023-04-18T14:53:04.926Z,96898.22
2023-04-18T14:55:32.442Z,96889.81
2023-04-18T14:57:59.175Z,96894.34
2023-04-18T15:00:26.097Z,96890.34
2023-04-18T15:02:53.258Z,96889.63
2023-04-18T15:05:20.737Z,96891.91
2023-04-18T15:07:47.551Z,96882.13
2023-04-18T15:10:14.363Z,96879.19
2023-04-18T15:12:41.237Z,96882.75
2023-04-18T15:15:08.869Z,96887.19
2023-04-18T15:17:35.682Z,96886.16
2023-04-18T15:20:02.689Z,96885.91
2023-04-18T15:22:31.741Z,96880.47
2023-04-18T15:24:58.489Z,96878.84
2023-04-18T15:27:25.232Z,96887.06
2023-04-18T15:29:52.437Z,96883.56
2023-04-18T15:32:19.200Z,96886.00
2023-04-18T15:34:46.054Z,96886.53
2023-04-18T15:37:12.840Z,96886.53
2023-04-18T15:39:39.631Z,96889.00
2023-04-18T15:42:06.491Z,96884.59
2023-04-18T15:44:34.540Z,96896.41
2023-04-18T15:47:04.202Z,96899.13
2023-04-18T15:49:30.896Z,96891.88
2023-04-18T15:51:57.703Z,96885.41
2023-04-18T15:54:24.402Z,96889.97
2023-04-18T15:56:51.194Z,96885.19
2023-04-18T15:59:17.863Z,96887.44
2023-04-18T16:01:45.853Z,96898.44
2023-04-18T16:04:13.216Z,96889.34
2023-04-18T16:06:40.315Z,96888.19
2023-04-18T16:09:07.055Z,96896.09
2023-04-18T16:11:33.778Z,96894.69
2023-04-18T16:14:00.520Z,96893.97
2023-04-18T16:16:27.325Z,96893.66
2023-04-18T16:18:54.159Z,96897.22
2023-04-18T16:21:20.918Z,96899.47
2023-04-18T16:23:48.319Z,96908.00
2023-04-18T16:26:15.197Z,96901.13
2023-04-18T16:28:41.953Z,96910.47
2023-04-18T16:31:08.843Z,96891.09
2023-04-18T16:33:35.635Z,96891.91
2023-04-18T16:36:02.542Z,96890.63
2023-04-18T16:38:29.354Z,96898.78
2023-04-18T16:40:56.420Z,96896.59
2023-04-18T16:43:23.922Z,96896.97
2023-04-18T16:45:54.454Z,96919.19
2023-04-18T16:48:21.157Z,96925.16
2023-04-18T16:50:48.006Z,96920.13
2023-04-18T16:53:14.690Z,96918.09
2023-04-18T16:55:41.422Z,96919.72
2023-04-18T16:58:08.377Z,96923.00
2023-04-18T17:00:38.391Z,96923.28
2023-04-18T17:03:05.456Z,96923.50
2023-04-18T17:05:32.888Z,96930.28
2023-04-18T17:08:00.364Z,96923.88
2023-04-18T17:10:29.262Z,96917.47
2023-04-18T17:12:56.112Z,96923.78
2023-04-18T17:15:23.017Z,96917.78
2023-04-18T17:17:49.989Z,96922.69
2023-04-18T17:20:16.829Z,96934.66
2023-04-18T17:22:46.090Z,96930.97
2023-04-18T17:25:12.797Z,96934.13
2023-04-18T17:27:39.854Z,96933.09
2023-04-18T17:30:12.688Z,96937.31
2023-04-18T17:32:39.454Z,96933.59
2023-04-18T17:35:06.530Z,96938.41
2023-04-18T17:37:33.350Z,96934.75
2023-04-18T17:40:00.160Z,96941.66
2023-04-18T17:42:27.117Z,96946.50
2023-04-18T17:44:53.915Z,96933.34
2023-04-18T17:47:20.683Z,96948.28
2023-04-18T17:49:47.621Z,96948.00
2023-04-18T17:52:14.329Z,96953.13
2023-04-18T17:54:41.149Z,96950.84
2023-04-18T17:57:07.981Z,96952.72
2023-04-18T17:59:35.012Z,96954.81
2023-04-18T18:02:01.822Z,96964.63
2023-04-18T18:04:28.694Z,96961.00
2023-04-18T18:06:56.042Z,96974.88
2023-04-18T18:09:22.842Z,96976.19
2023-04-18T18:11:49.545Z,96963.06
2023-04-18T18:14:16.330Z,96970.84
2023-04-18T18:16:43.811Z,96976.56
2023-04-18T18:19:10.908Z,96984.41
2023-04-18T18:21:37.718Z,96972.94
2023-04-18T18:24:04.701Z,96964.44
2023-04-18T18:26:31.476Z,96985.47
2023-04-18T18:28:58.259Z,96978.53
2023-04-18T18:31:25.112Z,96947.34
2023-04-18T18:33:54.952Z,96948.03
2023-04-18T18:36:21.672Z,96985.88
2023-04-18T18:38:48.417Z,96989.66
2023-04-18T18:41:15.124Z,96992.69
2023-04-18T18:43:41.850Z,96988.41
2023-04-18T18:46:11.329Z,96991.13
2023-04-18T18:48:38.326Z,96998.47
2023-04-18T18:51:05.107Z,97006.91
2023-04-18T18:53:31.862Z,97003.84
2023-04-18T18:55:58.671Z,97007.09
2023-04-18T18:58:25.537Z,97014.47
2023-04-18T19:00:52.316Z,97016.59
2023-04-18T19:03:21.031Z,97013.88
2023-04-18T19:05:48.003Z,97026.38
2023-04-18T19:08:14.805Z,97019.16
2023-04-18T19:10:41.771Z,97030.34
2023-04-18T19:13:08.833Z,97034.09
2023-04-18T19:15:35.623Z,97043.25
2023-04-18T19:18:02.396Z,97037.53
2023-04-18T19:20:29.322Z,97034.19
2023-04-18T19:22:56.203Z,97030.53
2023-04-18T19:25:23.069Z,97032.19
2023-04-18T19:27:49.864Z,97034.84
2023-04-18T19:30:19.190Z,97034.00
2023-04-18T19:32:45.972Z,97036.75
2023-04-18T19:35:12.682Z,97032.69
2023-04-18T19:37:39.480Z,97034.00
2023-04-18T19:40:06.796Z,97039.28
2023-04-18T19:42:33.508Z,97038.59
2023-04-18T19:45:00.325Z,97041.66
2023-04-18T19:47:27.189Z,97037.84
2023-04-18T19:49:58.065Z,97045.19
2023-04-18T19:52:24.736Z,97040.69
2023-04-18T19:54:52.736Z,97046.84
2023-04-18T19:57:19.388Z,97043.22
2023-04-18T19:59:46.239Z,97038.59
2023-04-18T20:02:12.978Z,97043.72
2023-04-18T20:04:39.887Z,97044.88
2023-04-18T20:07:06.697Z,97047.03
2023-04-18T20:09:33.411Z,97044.56
2023-04-18T20:12:00.161Z,97046.44
2023-04-18T20:14:27.740Z,97050.72
2023-04-18T20:16:55.029Z,97052.63
2023-04-18T20:19:22.525Z,97048.25
2023-04-18T20:21:49.193Z,97055.03
2023-04-18T20:24:16.022Z,97053.94
2023-04-18T20:26:42.830Z,97051.47
2023-04-18T20:29:09.640Z,97050.97
2023-04-18T20:31:36.363Z,97046.84
2023-04-18T20:34:03.106Z,97049.31
2023-04-18T20:36:29.894Z,97060.72
2023-04-18T20:38:56.670Z,97054.44
2023-04-18T20:41:23.507Z,97054.44
2023-04-18T20:43:50.207Z,97055.84
2023-04-18T20:46:17.017Z,97056.56
2023-04-18T20:48:43.824Z,97056.91
2023-04-18T20:51:10.753Z,97059.06
2023-04-18T20:53:37.510Z,97057.66
2023-04-18T20:56:04.368Z,97071.28
2023-04-18T20:58:31.146Z,97065.59
2023-04-18T21:00:58.033Z,97069.97
2023-04-18T21:03:25.111Z,97060.38
2023-04-18T21:05:52.372Z,97070.44
2023-04-18T21:08:19.082Z,97074.00
2023-04-18T21:10:45.811Z,97069.88
2023-04-18T21:13:12.620Z,97074.81
2023-04-18T21:15:40.982Z,97078.03
2023-04-18T21:18:07.798Z,97081.59
2023-04-18T21:20:34.596Z,97081.00
2023-04-18T21:23:04.216Z,97087.03
2023-04-18T21:25:30.946Z,97092.25
2023-04-18T21:27:57.728Z,97101.50
2023-04-18T21:30:24.560Z,97111.91
2023-04-18T21:32:51.314Z,97108.84
2023-04-18T21:35:20.138Z,97113.72
2023-04-18T21:37:48.167Z,97118.91
2023-04-18T21:40:15.006Z,97120.22
2023-04-18T21:42:41.832Z,97122.97
2023-04-18T21:45:09.684Z,97131.97
2023-04-18T21:47:36.504Z,97128.97
2023-04-18T21:50:03.730Z,97134.34
2023-04-18T21:52:30.494Z,97135.63
2023-04-18T21:54:57.331Z,97145.63
2023-04-18T21:57:24.166Z,97136.97
2023-04-18T21:59:50.908Z,97144.31
2023-04-18T22:02:17.711Z,97143.00
2023-04-18T22:04:44.574Z,97142.75
2023-04-18T22:07:11.367Z,97137.53
2023-04-18T22:09:38.212Z,97146.06
2023-04-18T22:12:05.223Z,97147.84
2023-04-18T22:14:32.103Z,97142.16
2023-04-18T22:16:59.202Z,97141.59
2023-04-18T22:19:26.097Z,97144.31
2023-04-18T22:21:52.819Z,97150.59
2023-04-18T22:24:19.562Z,97153.81
2023-04-18T22:26:46.356Z,97149.19
2023-04-18T22:29:13.237Z,97147.03
2023-04-18T22:31:39.969Z,97152.97
2023-04-18T22:34:06.728Z,97154.88
2023-04-18T22:36:33.535Z,97152.16
2023-04-18T22:39:00.371Z,97160.06
2023-04-18T22:41:27.096Z,97162.22
2023-04-18T22:43:53.859Z,97164.69
2023-04-18T22:46:20.842Z,97163.75
2023-04-18T22:48:47.673Z,97161.28
2023-04-18T22:51:14.389Z,97165.06
2023-04-18T22:53:41.124Z,97167.91
2023-04-18T22:56:08.007Z,97173.72
2023-04-18T22:58:34.777Z,97173.25
2023-04-18T23:01:01.489Z,97179.53
2023-04-18T23:03:28.456Z,97178.44
2023-04-18T23:05:55.212Z,97182.25
2023-04-18T23:08:21.976Z,97179.53
2023-04-18T23:10:48.780Z,97186.03
2023-04-18T23:13:15.578Z,97180.09
2023-04-18T23:15:42.420Z,97188.28
2023-04-18T23:18:09.244Z,97183.88
2023-04-18T23:20:36.024Z,97184.13
2023-04-18T23:23:02.760Z,97195.28
2023-04-18T23:25:32.150Z,97186.88
2023-04-18T23:27:59.074Z,97189.59
2023-04-18T23:30:26.146Z,97191.72
2023-04-18T23:32:52.932Z,97194.22
2023-04-18T23:35:19.681Z,97198.00
2023-04-18T23:37:46.484Z,97197.41
2023-04-18T23:40:13.314Z,97194.69
2023-04-18T23:42:40.063Z,97203.44
2023-04-18T23:45:07.307Z,97203.13
2023-04-18T23:47:39.148Z,97200.38
2023-04-18T23:50:06.466Z,97200.97
2023-04-18T23:52:33.346Z,97196.34
2023-04-18T23:55:00.811Z,97200.72
2023-04-18T23:57:27.687Z,97198.00
2023-04-18T23:59:54.522Z,97206.41
